Time;durP1;ratioP1;P1;durP2;ratioP2;P2;SDS_P1;SDS_P2;PMS_P1;PMS_P2;Temp;Humidity;BMP_temperature;BMP_pressure;BME280_temperature;BME280_humidity;BME280_pressure;Samples;Min_cycle;Max_cycle;Signal;HPM_P1;HPM_P2
2021/10/12 00:00:38;;;;;;;11.93;7.53;;;9.80;99.90;;;;;;4191053;28;20137;-62
2021/10/12 00:02:39;;;;;;;13.97;8.20;;;9.70;99.90;;;;;;4186293;28;20041;-62
2021/10/12 00:04:41;;;;;;;11.83;7.00;;;9.70;99.90;;;;;;4176063;28;20493;-63
2021/10/12 00:06:42;;;;;;;13.87;8.03;;;9.80;99.90;;;;;;4175794;28;20079;-66
2021/10/12 00:08:43;;;;;;;15.70;7.50;;;9.70;99.90;;;;;;4174326;28;20041;-63
2021/10/12 00:10:44;;;;;;;15.27;8.23;;;9.80;99.90;;;;;;4174187;28;20079;-67
2021/10/12 00:12:45;;;;;;;11.70;7.87;;;9.70;99.90;;;;;;4173989;28;20090;-67
2021/10/12 00:14:46;;;;;;;14.30;8.40;;;9.70;99.90;;;;;;4187589;28;20458;-66
2021/10/12 00:16:47;;;;;;;17.57;7.57;;;9.60;99.90;;;;;;4189981;28;20098;-62
2021/10/12 00:18:49;;;;;;;14.13;8.20;;;9.60;99.90;;;;;;4190159;28;20030;-63
2021/10/12 00:20:51;;;;;;;12.80;8.67;;;9.60;99.90;;;;;;4189883;28;20028;-67
2021/10/12 00:22:52;;;;;;;16.83;9.27;;;9.60;99.90;;;;;;4190339;28;20101;-61
2021/10/12 00:24:53;;;;;;;14.57;9.00;;;9.50;99.90;;;;;;4190059;28;20048;-62
2021/10/12 00:26:54;;;;;;;16.03;9.50;;;9.50;99.90;;;;;;4176167;28;20037;-65
2021/10/12 00:28:55;;;;;;;15.00;10.10;;;9.50;99.90;;;;;;4172916;28;20071;-62
2021/10/12 00:30:57;;;;;;;13.67;8.40;;;9.50;99.90;;;;;;4173730;28;20809;-62
2021/10/12 00:32:58;;;;;;;13.33;7.47;;;9.60;99.90;;;;;;4173329;28;20029;-62
2021/10/12 00:35:00;;;;;;;14.97;9.17;;;9.60;99.90;;;;;;4173844;28;20083;-63
2021/10/12 00:37:01;;;;;;;15.13;9.10;;;9.60;99.90;;;;;;4172991;28;20106;-62
2021/10/12 00:39:04;;;;;;;16.10;8.53;;;9.60;99.90;;;;;;4173962;28;20091;-62
2021/10/12 00:41:08;;;;;;;14.23;8.50;;;9.60;99.90;;;;;;4173701;28;20055;-62
2021/10/12 00:43:10;;;;;;;16.53;8.97;;;9.60;99.90;;;;;;4173397;28;20103;-63
2021/10/12 00:45:12;;;;;;;17.43;9.50;;;9.60;99.90;;;;;;4173280;28;20041;-64
2021/10/12 00:47:13;;;;;;;16.70;9.03;;;9.50;99.90;;;;;;4173475;28;20119;-63
2021/10/12 00:49:14;;;;;;;18.60;9.33;;;9.60;99.90;;;;;;4183546;28;20436;-62
2021/10/12 00:51:15;;;;;;;16.57;9.83;;;9.50;99.90;;;;;;4189101;28;20086;-63
2021/10/12 00:53:17;;;;;;;14.60;9.23;;;9.50;99.90;;;;;;4189728;28;20028;-63
2021/10/12 00:55:18;;;;;;;16.87;9.50;;;9.60;99.90;;;;;;4188951;28;20048;-62
2021/10/12 00:57:19;;;;;;;17.67;9.57;;;9.60;99.90;;;;;;4189857;28;20086;-62
2021/10/12 00:59:20;;;;;;;17.73;8.90;;;9.60;99.90;;;;;;4189065;28;20037;-62
2021/10/12 01:01:21;;;;;;;16.57;9.07;;;9.60;99.90;;;;;;4190458;28;20024;-65
2021/10/12 01:03:22;;;;;;;17.97;8.90;;;9.60;99.90;;;;;;4188763;28;20032;-63
2021/10/12 01:05:24;;;;;;;14.77;8.83;;;9.60;99.90;;;;;;4190064;28;20092;-66
2021/10/12 01:07:25;;;;;;;18.63;9.30;;;9.60;99.90;;;;;;4189059;28;20094;-62
2021/10/12 01:09:26;;;;;;;15.30;9.47;;;9.60;99.90;;;;;;4189659;28;20519;-62
2021/10/12 01:11:27;;;;;;;15.63;9.87;;;9.60;99.90;;;;;;4185350;28;20091;-63
2021/10/12 01:13:28;;;;;;;18.87;9.67;;;9.60;99.90;;;;;;4173282;28;20370;-65
2021/10/12 01:15:33;;;;;;;13.50;8.17;;;9.50;99.90;;;;;;4173438;28;20049;-62
2021/10/12 01:17:35;;;;;;;17.43;9.10;;;9.60;99.90;;;;;;4171373;28;20047;-64
2021/10/12 01:19:36;;;;;;;16.43;8.77;;;9.60;99.90;;;;;;4172161;28;20025;-63
2021/10/12 01:21:38;;;;;;;14.97;8.73;;;9.50;99.90;;;;;;4172802;28;20106;-65
2021/10/12 01:23:39;;;;;;;17.57;9.27;;;9.50;99.90;;;;;;4172873;28;20762;-62
2021/10/12 01:25:40;;;;;;;18.77;9.27;;;9.50;99.90;;;;;;4171990;28;20090;-66
2021/10/12 01:27:43;;;;;;;19.37;9.93;;;9.50;99.90;;;;;;4172784;28;20029;-63
2021/10/12 01:29:44;;;;;;;17.77;9.07;;;9.50;99.90;;;;;;4172313;28;20436;-62
2021/10/12 01:31:46;;;;;;;15.17;8.80;;;9.50;99.90;;;;;;4173461;28;20551;-63
2021/10/12 01:33:47;;;;;;;15.60;8.63;;;9.60;99.90;;;;;;4171700;28;20036;-61
2021/10/12 01:35:52;;;;;;;15.83;9.23;;;9.60;99.90;;;;;;4156484;28;20099;-62
2021/10/12 01:37:53;;;;;;;18.80;9.20;;;9.50;99.90;;;;;;4155550;28;20025;-62
2021/10/12 01:39:54;;;;;;;15.13;8.70;;;9.50;99.90;;;;;;4156619;28;20083;-63
2021/10/12 01:41:55;;;;;;;15.83;9.30;;;9.50;99.90;;;;;;4156077;28;20922;-64
2021/10/12 01:43:57;;;;;;;14.30;8.57;;;9.50;99.90;;;;;;4155876;28;20037;-68
2021/10/12 01:45:59;;;;;;;15.07;9.37;;;9.50;99.90;;;;;;4163872;28;20025;-64
2021/10/12 01:48:00;;;;;;;13.83;8.40;;;9.50;99.90;;;;;;4172130;28;20033;-63
2021/10/12 01:50:03;;;;;;;18.90;9.73;;;9.50;99.90;;;;;;4172857;28;20037;-64
2021/10/12 01:52:05;;;;;;;16.90;10.03;;;9.50;99.90;;;;;;4172329;28;20040;-63
2021/10/12 01:54:21;;;;;;;18.80;9.60;;;9.40;99.90;;;;;;4172544;28;20074;-62
2021/10/12 01:56:22;;;;;;;13.17;8.93;;;9.40;99.90;;;;;;4172611;28;20539;-65
2021/10/12 01:58:23;;;;;;;13.00;8.50;;;9.40;99.90;;;;;;4186725;28;20056;-62
2021/10/12 02:00:24;;;;;;;16.00;9.10;;;9.40;99.90;;;;;;4189021;28;20036;-64
2021/10/12 02:02:25;;;;;;;16.60;10.40;;;9.40;99.90;;;;;;4189388;28;20028;-61
2021/10/12 02:04:27;;;;;;;16.17;9.60;;;9.40;99.90;;;;;;4188625;28;20086;-62
2021/10/12 02:06:28;;;;;;;16.10;9.03;;;9.40;99.90;;;;;;4189723;28;20086;-65
2021/10/12 02:08:29;;;;;;;15.37;8.97;;;9.40;99.90;;;;;;4188749;28;20109;-66
2021/10/12 02:10:31;;;;;;;16.10;9.57;;;9.40;99.90;;;;;;4189760;28;20078;-65
2021/10/12 02:12:32;;;;;;;18.33;11.37;;;9.40;99.90;;;;;;4188396;28;20028;-65
2021/10/12 02:14:33;;;;;;;18.60;10.10;;;9.40;99.90;;;;;;4189283;28;20115;-62
2021/10/12 02:16:34;;;;;;;17.30;10.33;;;9.40;99.90;;;;;;4179338;28;20040;-67
2021/10/12 02:18:35;;;;;;;17.07;10.20;;;9.30;99.90;;;;;;4172091;28;20102;-62
2021/10/12 02:20:37;;;;;;;17.20;9.73;;;9.30;99.90;;;;;;4172611;28;20041;-64
2021/10/12 02:22:39;;;;;;;19.33;11.17;;;9.30;99.90;;;;;;4171598;28;20651;-64
2021/10/12 02:24:40;;;;;;;21.47;10.27;;;9.30;99.90;;;;;;4172245;28;20110;-62
2021/10/12 02:26:41;;;;;;;16.50;10.40;;;9.30;99.90;;;;;;4171886;28;20033;-63
2021/10/12 02:28:43;;;;;;;18.23;9.83;;;9.30;99.90;;;;;;4172330;28;20936;-62
2021/10/12 02:30:44;;;;;;;16.07;9.63;;;9.40;99.90;;;;;;4173539;28;20079;-63
2021/10/12 02:32:45;;;;;;;16.53;10.57;;;9.30;99.90;;;;;;4162855;28;20602;-62
2021/10/12 02:34:46;;;;;;;19.00;10.23;;;9.30;99.90;;;;;;4158324;28;20033;-63
2021/10/12 02:36:47;;;;;;;18.53;10.00;;;9.40;99.90;;;;;;4159417;28;20033;-62
2021/10/12 02:38:48;;;;;;;18.67;9.57;;;9.40;99.90;;;;;;4165954;28;20054;-63
2021/10/12 02:40:51;;;;;;;18.67;10.67;;;9.40;99.90;;;;;;4190933;28;20056;-71
2021/10/12 02:42:53;;;;;;;15.87;10.17;;;9.40;99.90;;;;;;4191164;28;20445;-62
2021/10/12 02:44:54;;;;;;;19.47;10.80;;;9.40;99.90;;;;;;4192123;28;20044;-63
2021/10/12 02:46:55;;;;;;;17.63;9.97;;;9.40;99.90;;;;;;4190134;28;20091;-63
2021/10/12 02:48:56;;;;;;;17.40;9.70;;;9.40;99.90;;;;;;4191713;28;20044;-64
2021/10/12 02:50:58;;;;;;;19.07;11.53;;;9.40;99.90;;;;;;4191671;28;20058;-63
2021/10/12 02:52:59;;;;;;;18.00;10.47;;;9.40;99.90;;;;;;4191679;28;20033;-68
2021/10/12 02:55:01;;;;;;;16.07;10.00;;;9.30;99.90;;;;;;4191790;28;20495;-63
2021/10/12 02:57:02;;;;;;;14.90;9.23;;;9.30;99.90;;;;;;4186442;28;20102;-63
2021/10/12 02:59:03;;;;;;;15.67;9.77;;;9.30;99.90;;;;;;4175263;28;20076;-62
2021/10/12 03:01:04;;;;;;;17.67;10.63;;;9.30;99.90;;;;;;4174717;28;20458;-64
2021/10/12 03:03:10;;;;;;;17.33;10.20;;;9.30;99.90;;;;;;4190890;28;20553;-65
2021/10/12 03:05:11;;;;;;;18.47;10.13;;;9.30;99.90;;;;;;4190219;28;20048;-62
2021/10/12 03:07:12;;;;;;;22.13;10.83;;;9.30;99.90;;;;;;4191573;28;20051;-68
2021/10/12 03:09:13;;;;;;;20.53;11.37;;;9.20;99.90;;;;;;4190732;28;20044;-62
2021/10/12 03:11:14;;;;;;;21.00;11.37;;;9.20;99.90;;;;;;4190330;28;20605;-62
2021/10/12 03:13:15;;;;;;;16.87;10.87;;;9.20;99.90;;;;;;4190962;28;20914;-66
2021/10/12 03:15:16;;;;;;;24.73;11.70;;;9.20;99.90;;;;;;4191196;28;20032;-63
2021/10/12 03:17:17;;;;;;;20.93;11.20;;;9.10;99.90;;;;;;4190908;28;20613;-64
2021/10/12 03:19:18;;;;;;;16.97;10.47;;;9.00;99.90;;;;;;4191590;28;20036;-66
2021/10/12 03:21:21;;;;;;;22.10;10.80;;;9.00;99.90;;;;;;4190329;28;20439;-63
2021/10/12 03:23:22;;;;;;;23.47;11.40;;;9.00;99.90;;;;;;4190835;28;20032;-62
2021/10/12 03:25:23;;;;;;;20.17;11.33;;;8.90;99.90;;;;;;4180333;28;20611;-64
2021/10/12 03:27:25;;;;;;;22.70;11.70;;;8.90;99.90;;;;;;4174609;28;20079;-65
2021/10/12 03:29:26;;;;;;;19.77;11.40;;;8.80;99.90;;;;;;4174901;28;20095;-63
2021/10/12 03:31:27;;;;;;;17.70;11.40;;;8.80;99.90;;;;;;4174700;28;20542;-64
2021/10/12 03:33:28;;;;;;;19.27;11.77;;;8.80;99.90;;;;;;4174345;28;20094;-67
2021/10/12 03:35:31;;;;;;;20.73;11.87;;;8.80;99.90;;;;;;4173723;28;20033;-63
2021/10/12 03:37:33;;;;;;;22.13;12.83;;;8.80;99.90;;;;;;4174539;28;20041;-64
2021/10/12 03:39:35;;;;;;;21.07;11.53;;;8.80;99.90;;;;;;4173570;28;20842;-65
2021/10/12 03:41:36;;;;;;;21.63;11.83;;;8.80;99.90;;;;;;4173725;28;20594;-62
2021/10/12 03:43:37;;;;;;;19.17;12.30;;;8.80;99.90;;;;;;4172842;28;20029;-63
2021/10/12 03:45:38;;;;;;;21.70;11.17;;;8.80;99.90;;;;;;4175813;28;20087;-65
2021/10/12 03:47:40;;;;;;;20.90;11.93;;;8.80;99.90;;;;;;4190450;28;20074;-63
2021/10/12 03:49:41;;;;;;;20.63;11.07;;;8.80;99.90;;;;;;4190594;28;20048;-62
2021/10/12 03:51:43;;;;;;;20.77;11.53;;;8.80;99.90;;;;;;4190142;28;20062;-65
2021/10/12 03:53:44;;;;;;;16.67;11.00;;;8.80;99.90;;;;;;4190633;28;20032;-67
2021/10/12 03:55:45;;;;;;;19.33;11.50;;;8.80;99.90;;;;;;4190181;28;20038;-65
2021/10/12 03:57:46;;;;;;;20.87;11.93;;;8.80;99.90;;;;;;4184331;28;20036;-66
2021/10/12 03:59:48;;;;;;;21.67;11.93;;;8.70;99.90;;;;;;4190043;28;20113;-62
2021/10/12 04:01:49;;;;;;;21.03;12.13;;;8.80;99.90;;;;;;4174472;28;20029;-62
2021/10/12 04:03:52;;;;;;;21.20;11.80;;;8.80;99.90;;;;;;4173755;28;20036;-63
2021/10/12 04:05:53;;;;;;;22.63;12.47;;;8.80;99.90;;;;;;4172310;28;20425;-67
2021/10/12 04:07:54;;;;;;;18.13;11.43;;;8.80;99.90;;;;;;4174524;28;20041;-64
2021/10/12 04:09:55;;;;;;;21.00;12.07;;;8.80;99.90;;;;;;4187597;28;20089;-64
2021/10/12 04:11:57;;;;;;;20.57;11.20;;;8.70;99.90;;;;;;4190168;28;20488;-63
2021/10/12 04:13:58;;;;;;;18.97;11.40;;;8.70;99.90;;;;;;4189708;28;20486;-63
2021/10/12 04:15:59;;;;;;;17.97;10.97;;;8.70;99.90;;;;;;4189797;28;20036;-62
2021/10/12 04:18:00;;;;;;;25.90;11.13;;;8.70;99.90;;;;;;4176809;28;20122;-61
2021/10/12 04:20:03;;;;;;;18.33;10.63;;;8.70;99.90;;;;;;4162453;28;20029;-62
2021/10/12 04:22:04;;;;;;;16.43;10.83;;;8.70;99.90;;;;;;4164842;28;20028;-61
2021/10/12 04:24:05;;;;;;;19.67;10.83;;;8.70;99.90;;;;;;4171877;28;20045;-66
2021/10/12 04:26:11;;;;;;;17.73;11.60;;;8.60;99.90;;;;;;4171777;28;20049;-62
2021/10/12 04:28:13;;;;;;;18.23;10.63;;;8.70;99.90;;;;;;4171143;28;20048;-62
2021/10/12 04:30:25;;;;;;;16.50;11.10;;;8.60;99.90;;;;;;4170731;28;20126;-62
2021/10/12 04:32:27;;;;;;;17.37;9.33;;;8.60;99.90;;;;;;4177032;28;20045;-64
2021/10/12 04:34:29;;;;;;;22.63;10.60;;;8.70;99.90;;;;;;4171036;28;20049;-62
2021/10/12 04:36:30;;;;;;;12.10;7.30;;;8.60;99.90;;;;;;4171065;28;20053;-63
2021/10/12 04:38:31;;;;;;;16.90;9.50;;;8.50;99.90;;;;;;4203142;28;20047;-67
2021/10/12 04:40:32;;;;;;;15.73;10.70;;;8.50;99.90;;;;;;4166722;28;20048;-68
2021/10/12 04:42:35;;;;;;;17.67;11.20;;;8.40;99.90;;;;;;4158181;28;20103;-65
2021/10/12 04:44:36;;;;;;;20.13;10.77;;;8.40;99.90;;;;;;4172216;28;20335;-69
2021/10/12 04:46:41;;;;;;;18.23;11.40;;;8.40;99.90;;;;;;4173588;28;20558;-62
2021/10/12 04:48:42;;;;;;;14.87;9.23;;;8.40;99.90;;;;;;4187670;28;20504;-62
2021/10/12 04:50:43;;;;;;;15.60;9.00;;;8.40;99.90;;;;;;4189565;28;20033;-62
2021/10/12 04:52:45;;;;;;;13.07;6.70;;;8.40;99.90;;;;;;4188886;28;20048;-63
2021/10/12 04:54:46;;;;;;;14.73;9.23;;;8.40;99.90;;;;;;4188684;28;20435;-65
2021/10/12 04:56:47;;;;;;;19.10;11.23;;;8.30;99.90;;;;;;4189239;28;20024;-62
2021/10/12 04:58:51;;;;;;;22.67;11.23;;;8.30;99.90;;;;;;4189219;28;20044;-65
2021/10/12 05:00:52;;;;;;;23.77;13.50;;;8.30;99.90;;;;;;4189057;28;20036;-62
2021/10/12 05:02:53;;;;;;;19.83;13.63;;;8.30;99.90;;;;;;4189325;28;20082;-65
2021/10/12 05:04:54;;;;;;;17.93;12.07;;;8.40;99.90;;;;;;4188969;28;20783;-67
2021/10/12 05:06:56;;;;;;;16.37;11.10;;;8.40;99.90;;;;;;4189130;28;20036;-62
2021/10/12 05:08:57;;;;;;;17.43;9.80;;;8.40;99.90;;;;;;4189415;28;20095;-71
2021/10/12 05:10:58;;;;;;;16.33;10.43;;;8.40;99.90;;;;;;4188707;28;20076;-63
2021/10/12 05:12:59;;;;;;;17.90;10.10;;;8.40;99.90;;;;;;4189388;28;20028;-65
2021/10/12 05:15:01;;;;;;;16.50;9.43;;;8.40;99.90;;;;;;4186396;28;20082;-62
2021/10/12 05:17:04;;;;;;;18.77;9.73;;;8.40;99.90;;;;;;4189410;28;20021;-64
2021/10/12 05:19:05;;;;;;;17.60;10.70;;;8.40;99.90;;;;;;4187932;28;20081;-64
2021/10/12 05:21:06;;;;;;;18.83;9.40;;;8.40;99.90;;;;;;4188747;28;20032;-68
2021/10/12 05:23:07;;;;;;;12.27;8.10;;;8.40;99.90;;;;;;4187825;28;20399;-61
2021/10/12 05:25:09;;;;;;;13.97;7.93;;;8.40;99.90;;;;;;4188908;28;20082;-64
2021/10/12 05:27:11;;;;;;;13.97;8.00;;;8.30;99.90;;;;;;4187719;28;20467;-65
2021/10/12 05:29:13;;;;;;;13.10;8.30;;;8.30;99.90;;;;;;4187911;28;20040;-62
2021/10/12 05:31:14;;;;;;;13.83;8.50;;;8.40;99.90;;;;;;4188537;28;20032;-69
2021/10/12 05:33:17;;;;;;;15.63;10.33;;;8.40;99.90;;;;;;4188560;28;20084;-62
2021/10/12 05:35:18;;;;;;;17.50;9.10;;;8.40;99.90;;;;;;4188531;28;20032;-62
2021/10/12 05:37:19;;;;;;;16.60;9.40;;;8.30;99.90;;;;;;4188526;28;20374;-72
2021/10/12 05:39:20;;;;;;;13.90;9.03;;;8.40;99.90;;;;;;4188704;28;20089;-62
2021/10/12 05:41:21;;;;;;;15.37;8.93;;;8.40;99.90;;;;;;4188538;28;20369;-62
2021/10/12 05:43:22;;;;;;;15.83;9.23;;;8.30;99.90;;;;;;4188882;28;20033;-68
2021/10/12 05:45:24;;;;;;;15.73;9.00;;;8.40;99.90;;;;;;4188637;28;20028;-62
2021/10/12 05:47:25;;;;;;;18.53;9.57;;;8.40;99.90;;;;;;4189224;28;20483;-63
2021/10/12 05:49:26;;;;;;;15.03;8.30;;;8.40;99.90;;;;;;4188008;28;20085;-63
2021/10/12 05:51:28;;;;;;;12.93;8.20;;;8.40;99.90;;;;;;4188476;28;20445;-63
2021/10/12 06:00:03;;;;;;;11.90;7.50;;;8.40;99.90;;;;;;4189012;28;20082;-62
2021/10/12 06:02:05;;;;;;;11.27;7.07;;;8.40;99.90;;;;;;4188555;28;20017;-66
2021/10/12 06:04:07;;;;;;;10.20;7.07;;;8.40;99.90;;;;;;4188541;28;20033;-68
2021/10/12 06:06:08;;;;;;;13.87;8.10;;;8.40;99.90;;;;;;4187637;28;20028;-65
2021/10/12 06:08:09;;;;;;;14.90;10.07;;;8.40;99.90;;;;;;4188754;28;20113;-63
2021/10/12 06:10:10;;;;;;;18.67;9.57;;;8.40;99.90;;;;;;4188322;28;20090;-63
2021/10/12 06:12:11;;;;;;;11.67;7.53;;;8.50;99.90;;;;;;4188169;28;20038;-62
2021/10/12 06:14:14;;;;;;;13.30;7.30;;;8.50;99.90;;;;;;4189411;28;20170;-64
2021/10/12 06:16:21;;;;;;;16.10;7.90;;;8.50;99.90;;;;;;4188518;28;20105;-63
2021/10/12 06:18:22;;;;;;;10.13;6.23;;;8.50;99.90;;;;;;4188369;28;20033;-63
2021/10/12 06:20:23;;;;;;;12.43;7.13;;;8.50;99.90;;;;;;4189077;28;20041;-65
2021/10/12 06:22:24;;;;;;;10.33;6.03;;;8.50;99.90;;;;;;4187187;28;20032;-69
2021/10/12 06:24:25;;;;;;;10.77;6.33;;;8.50;99.90;;;;;;4187860;28;20036;-62
2021/10/12 06:26:26;;;;;;;8.87;6.33;;;8.50;99.90;;;;;;4189001;28;20040;-71
2021/10/12 06:28:29;;;;;;;8.90;6.17;;;8.50;99.90;;;;;;4187760;28;20090;-63
2021/10/12 06:30:30;;;;;;;9.70;5.57;;;8.50;99.90;;;;;;4188518;28;20377;-72
2021/10/12 06:32:31;;;;;;;11.10;5.57;;;8.50;99.90;;;;;;4188300;28;20032;-63
2021/10/12 06:34:32;;;;;;;7.73;5.00;;;8.50;99.90;;;;;;4188909;28;20435;-64
2021/10/12 06:36:35;;;;;;;8.30;5.03;;;8.50;99.90;;;;;;4187932;28;20048;-62
2021/10/12 06:38:37;;;;;;;9.43;4.63;;;8.50;99.90;;;;;;4188353;28;20530;-70
2021/10/12 06:40:38;;;;;;;6.57;4.33;;;8.50;99.90;;;;;;4188190;28;20082;-63
2021/10/12 06:42:40;;;;;;;7.33;4.40;;;8.50;99.90;;;;;;4188637;28;20025;-63
2021/10/12 06:44:41;;;;;;;6.73;4.87;;;8.50;99.90;;;;;;4188286;28;20066;-61
2021/10/12 06:46:42;;;;;;;6.27;3.80;;;8.60;99.90;;;;;;4187782;28;20454;-69
2021/10/12 06:48:43;;;;;;;8.60;5.23;;;8.60;99.90;;;;;;4188201;28;20069;-65
2021/10/12 06:50:44;;;;;;;8.77;5.23;;;8.60;99.90;;;;;;4188569;28;20094;-69
2021/10/12 06:52:46;;;;;;;8.70;5.53;;;8.70;99.90;;;;;;4188207;28;20028;-67
2021/10/12 06:54:49;;;;;;;8.20;4.50;;;8.70;99.90;;;;;;4187381;28;20044;-66
2021/10/12 06:56:51;;;;;;;8.50;4.77;;;8.70;99.90;;;;;;4188765;28;20049;-63
2021/10/12 06:58:52;;;;;;;8.97;4.40;;;8.70;99.90;;;;;;4187250;28;20142;-65
2021/10/12 07:00:53;;;;;;;7.70;4.90;;;8.70;99.90;;;;;;4188496;28;20509;-67
2021/10/12 07:02:54;;;;;;;9.20;5.40;;;8.60;99.90;;;;;;4187672;28;20028;-62
2021/10/12 07:04:55;;;;;;;9.03;5.17;;;8.60;99.90;;;;;;4188214;28;20866;-62
2021/10/12 07:06:56;;;;;;;5.87;4.70;;;8.70;99.90;;;;;;4187198;28;20033;-63
2021/10/12 07:08:57;;;;;;;8.33;4.70;;;8.70;99.90;;;;;;4188767;28;20488;-69
2021/10/12 07:10:58;;;;;;;7.50;4.73;;;8.70;99.90;;;;;;4187834;28;20044;-65
2021/10/12 07:12:59;;;;;;;7.20;5.03;;;8.70;99.90;;;;;;4187821;28;20117;-64
2021/10/12 07:15:01;;;;;;;8.60;4.87;;;8.70;99.90;;;;;;4188054;28;20094;-67
2021/10/12 07:17:03;;;;;;;8.27;5.23;;;8.70;99.90;;;;;;4188292;28;20040;-66
2021/10/12 07:19:05;;;;;;;6.97;5.13;;;8.70;99.90;;;;;;4189924;28;20041;-67
2021/10/12 07:21:06;;;;;;;11.07;4.87;;;8.80;99.90;;;;;;4190440;28;20475;-73
2021/10/12 07:23:07;;;;;;;8.77;5.83;;;8.80;99.90;;;;;;4190333;28;20045;-65
2021/10/12 07:25:08;;;;;;;9.73;5.93;;;8.80;99.90;;;;;;4190731;28;20477;-71
2021/10/12 07:27:09;;;;;;;8.63;5.17;;;8.90;99.90;;;;;;4191096;28;20028;-71
2021/10/12 07:29:11;;;;;;;10.23;5.37;;;8.90;99.90;;;;;;4189756;28;20488;-71
2021/10/12 07:31:12;;;;;;;9.37;6.10;;;8.90;99.90;;;;;;4191011;28;20146;-63
2021/10/12 07:33:13;;;;;;;6.20;4.90;;;8.90;99.90;;;;;;4190820;28;20116;-63
2021/10/12 07:35:14;;;;;;;7.43;4.67;;;9.00;99.90;;;;;;4190878;28;20044;-64
2021/10/12 07:37:15;;;;;;;12.63;4.87;;;9.00;99.90;;;;;;4189861;28;20094;-63
2021/10/12 07:39:18;;;;;;;14.27;5.33;;;9.00;99.90;;;;;;4191045;28;20029;-63
2021/10/12 07:41:20;;;;;;;7.17;5.13;;;9.00;99.90;;;;;;4190204;28;21121;-63
2021/10/12 07:43:21;;;;;;;7.00;4.63;;;9.00;99.90;;;;;;4190571;28;20021;-66
2021/10/12 07:45:22;;;;;;;11.03;5.33;;;9.00;99.90;;;;;;4190431;28;20059;-65
2021/10/12 07:47:24;;;;;;;7.23;4.70;;;9.10;99.90;;;;;;4190274;28;20048;-72
2021/10/12 07:49:25;;;;;;;10.20;5.00;;;9.10;99.90;;;;;;4189895;28;20495;-64
2021/10/12 07:51:28;;;;;;;11.17;5.47;;;9.20;99.90;;;;;;4189905;28;20114;-62
2021/10/12 07:53:32;;;;;;;9.07;4.57;;;9.20;99.90;;;;;;4189749;28;20024;-64
2021/10/12 07:55:46;;;;;;;7.40;5.17;;;9.20;99.90;;;;;;4189820;28;20024;-64
2021/10/12 07:57:47;;;;;;;7.47;4.27;;;9.20;99.90;;;;;;4190166;28;20090;-63
2021/10/12 07:59:48;;;;;;;5.40;3.77;;;9.20;99.90;;;;;;4189648;28;20036;-64
2021/10/12 08:01:50;;;;;;;14.00;7.17;;;9.20;99.90;;;;;;4190362;28;20082;-67
2021/10/12 08:03:51;;;;;;;13.87;8.17;;;9.20;99.90;;;;;;4189690;28;20086;-68
2021/10/12 08:05:52;;;;;;;8.43;5.33;;;9.20;99.90;;;;;;4189882;28;20104;-64
2021/10/12 08:07:54;;;;;;;7.23;4.33;;;9.20;99.90;;;;;;4188652;28;20082;-63
2021/10/12 08:09:58;;;;;;;6.67;4.03;;;9.30;99.90;;;;;;4190191;28;20044;-63
2021/10/12 08:11:59;;;;;;;6.67;3.73;;;9.30;99.90;;;;;;4188449;28;20048;-70
2021/10/12 08:14:03;;;;;;;6.80;3.93;;;9.30;99.90;;;;;;4189903;28;20474;-74
2021/10/12 08:16:09;;;;;;;8.07;3.77;;;9.30;99.90;;;;;;4188169;28;20041;-63
2021/10/12 08:18:10;;;;;;;7.07;4.13;;;9.30;99.90;;;;;;4190066;28;20098;-63
2021/10/12 08:20:13;;;;;;;7.13;4.37;;;9.30;99.90;;;;;;4189819;28;20066;-66
2021/10/12 08:22:14;;;;;;;7.80;4.60;;;9.30;99.90;;;;;;4189943;28;20435;-68
2021/10/12 08:24:19;;;;;;;8.20;4.50;;;9.30;99.90;;;;;;4189521;28;20830;-67
2021/10/12 08:26:21;;;;;;;10.23;4.43;;;9.40;99.90;;;;;;4189955;28;20109;-63
2021/10/12 08:28:22;;;;;;;5.13;4.63;;;9.40;99.90;;;;;;4189263;28;20124;-64
2021/10/12 08:30:24;;;;;;;7.53;4.33;;;9.50;99.90;;;;;;4189819;28;20086;-68
2021/10/12 08:32:25;;;;;;;7.53;4.37;;;9.60;99.90;;;;;;4188633;28;20052;-65
2021/10/12 08:34:27;;;;;;;6.93;5.00;;;9.70;99.90;;;;;;4189446;28;20492;-62
2021/10/12 08:36:28;;;;;;;7.10;4.53;;;9.80;99.90;;;;;;4189643;28;20207;-63
2021/10/12 08:38:29;;;;;;;7.60;3.97;;;9.80;99.90;;;;;;4189048;28;20573;-73
2021/10/12 08:40:31;;;;;;;6.77;4.73;;;9.80;99.90;;;;;;4189414;28;20112;-62
2021/10/12 08:42:36;;;;;;;6.57;4.10;;;9.80;99.90;;;;;;4188649;28;20096;-64
2021/10/12 08:45:08;;;;;;;8.97;4.60;;;9.80;99.90;;;;;;4189929;28;20052;-63
2021/10/12 08:47:10;;;;;;;4.60;3.60;;;9.90;99.90;;;;;;4183869;28;20778;-65
2021/10/12 08:49:12;;;;;;;5.77;3.53;;;9.90;99.90;;;;;;4189427;28;20037;-68
2021/10/12 08:51:13;;;;;;;3.97;3.27;;;9.90;99.90;;;;;;4188673;28;20446;-63
2021/10/12 08:53:15;;;;;;;7.40;4.10;;;9.90;99.90;;;;;;4190070;28;20066;-73
2021/10/12 08:55:16;;;;;;;5.77;3.20;;;9.90;99.90;;;;;;4188530;28;20090;-63
2021/10/12 08:57:33;;;;;;;4.20;3.10;;;9.80;99.90;;;;;;4189884;28;20512;-70
2021/10/12 08:59:34;;;;;;;4.50;3.47;;;9.90;99.90;;;;;;4188362;28;20074;-69
2021/10/12 09:01:56;;;;;;;5.50;3.83;;;9.90;99.90;;;;;;4189036;28;20082;-65
2021/10/12 09:06:03;;;;;;;3.77;2.80;;;9.90;99.90;;;;;;4189097;28;20101;-70
2021/10/12 09:08:04;;;;;;;3.77;2.30;;;9.90;99.90;;;;;;4188726;28;20545;-70
2021/10/12 09:10:19;;;;;;;3.87;2.40;;;9.90;99.90;;;;;;4189389;28;20041;-65
2021/10/12 09:12:43;;;;;;;3.97;2.73;;;9.80;99.90;;;;;;4188304;28;20082;-63
2021/10/12 09:14:56;;;;;;;4.40;2.50;;;9.80;99.90;;;;;;4189706;28;20048;-73
2021/10/12 09:17:06;;;;;;;4.03;2.80;;;9.80;99.90;;;;;;4188686;28;20384;-65
2021/10/12 09:19:18;;;;;;;3.45;2.40;;;9.70;99.90;;;;;;4189149;28;20070;-66
2021/10/12 09:21:20;;;;;;;4.97;3.03;;;9.70;99.90;;;;;;4188006;28;20029;-63
2021/10/12 09:23:22;;;;;;;4.23;2.77;;;9.70;99.90;;;;;;4189339;28;20587;-66
2021/10/12 09:25:33;;;;;;;2.23;2.00;;;9.60;99.90;;;;;;4188057;28;20032;-63
2021/10/12 09:27:47;;;;;;;3.53;3.00;;;9.70;99.90;;;;;;4188729;28;20054;-64
2021/10/12 09:29:49;;;;;;;6.83;2.70;;;9.60;99.90;;;;;;4188300;28;20021;-62
2021/10/12 09:31:53;;;;;;;4.00;3.00;;;9.70;99.90;;;;;;4189078;28;20074;-63
2021/10/12 09:33:55;;;;;;;4.90;2.70;;;9.70;99.90;;;;;;4188728;28;20446;-73
2021/10/12 09:35:56;;;;;;;3.77;2.73;;;9.70;99.90;;;;;;4188667;28;20040;-62
2021/10/12 09:38:05;;;;;;;3.53;3.00;;;9.60;99.90;;;;;;4188058;28;20468;-64
2021/10/12 09:40:20;;;;;;;4.73;2.20;;;9.60;99.90;;;;;;4187974;28;20070;-62
2021/10/12 09:42:21;;;;;;;3.67;2.30;;;9.60;99.90;;;;;;4187818;28;20029;-63
2021/10/12 09:44:23;;;;;;;6.30;2.57;;;9.60;99.90;;;;;;4188858;28;20106;-62
2021/10/12 09:46:31;;;;;;;2.87;2.10;;;9.60;99.90;;;;;;4187834;28;20552;-63
2021/10/12 09:48:34;;;;;;;2.83;2.00;;;9.60;99.90;;;;;;4188939;28;20040;-71
2021/10/12 09:50:35;;;;;;;2.03;1.77;;;9.70;99.90;;;;;;4188201;28;20032;-65
2021/10/12 09:52:38;;;;;;;2.97;2.17;;;9.70;99.90;;;;;;4188404;28;20048;-63
2021/10/12 09:54:47;;;;;;;2.43;1.93;;;9.70;99.90;;;;;;4188475;28;20024;-66
2021/10/12 09:56:48;;;;;;;4.60;2.50;;;9.70;99.90;;;;;;4188265;28;20036;-64
2021/10/12 09:58:50;;;;;;;2.30;1.87;;;9.80;99.90;;;;;;4188655;28;20053;-66
2021/10/12 10:00:52;;;;;;;3.47;1.90;;;9.80;99.90;;;;;;4188290;28;20048;-63
2021/10/12 10:02:54;;;;;;;5.97;2.40;;;9.90;99.90;;;;;;4188900;28;20040;-65
2021/10/12 10:04:56;;;;;;;2.20;1.90;;;10.00;99.90;;;;;;4187931;28;20040;-66
2021/10/12 10:07:29;;;;;;;2.17;1.53;;;10.00;99.90;;;;;;4188608;28;20098;-63
2021/10/12 10:09:33;;;;;;;1.33;1.10;;;10.00;99.90;;;;;;4177984;28;20117;-65
2021/10/12 10:11:42;;;;;;;3.13;1.50;;;10.00;99.90;;;;;;4188545;28;20094;-62
2021/10/12 10:13:45;;;;;;;1.80;1.40;;;10.10;99.90;;;;;;4187927;28;20040;-62
2021/10/12 10:15:46;;;;;;;1.70;1.07;;;10.10;99.90;;;;;;4188817;28;20077;-63
2021/10/12 10:17:48;;;;;;;1.73;1.37;;;10.20;99.90;;;;;;4187562;28;20020;-62
2021/10/12 10:19:50;;;;;;;2.30;0.90;;;10.10;99.90;;;;;;4188515;28;20041;-64
2021/10/12 10:21:51;;;;;;;2.83;1.93;;;10.10;99.90;;;;;;4187871;28;20059;-66
2021/10/12 10:26:26;;;;;;;1.37;0.87;;;10.00;99.90;;;;;;4187678;28;20055;-66
2021/10/12 10:28:27;;;;;;;1.33;0.77;;;10.00;99.90;;;;;;4188168;28;20036;-65
2021/10/12 10:30:28;;;;;;;1.23;0.80;;;10.00;99.90;;;;;;4187450;28;20106;-65
2021/10/12 10:32:45;;;;;;;1.77;0.93;;;9.90;99.90;;;;;;4188555;28;20480;-63
2021/10/12 10:34:57;;;;;;;0.73;0.70;;;9.80;99.90;;;;;;4187572;28;20033;-68
2021/10/12 10:37:17;;;;;;;1.57;1.00;;;9.80;99.90;;;;;;4188405;28;20493;-64
2021/10/12 10:39:36;;;;;;;1.90;0.93;;;9.80;99.90;;;;;;4187687;28;20086;-64
2021/10/12 10:41:37;;;;;;;2.47;1.20;;;9.70;99.90;;;;;;4188139;28;20054;-64
2021/10/12 10:43:59;;;;;;;2.67;1.10;;;9.60;99.90;;;;;;4187545;28;20032;-69
2021/10/12 10:46:00;;;;;;;1.30;1.13;;;9.60;99.90;;;;;;4188321;28;20110;-62
2021/10/12 10:48:04;;;;;;;1.83;1.50;;;9.60;99.90;;;;;;4187464;28;20532;-66
2021/10/12 10:50:27;;;;;;;2.13;1.40;;;9.50;99.90;;;;;;4188167;28;20083;-67